createdAt,value
2022-10-09T00:01:22.456Z,9.30
2022-10-09T00:03:53.868Z,9.20
2022-10-09T00:06:30.634Z,9.30
2022-10-09T00:08:58.464Z,9.30
2022-10-09T00:11:28.946Z,9.20
2022-10-09T00:13:56.915Z,9.20
2022-10-09T00:16:26.369Z,9.20
2022-10-09T00:18:54.725Z,9.20
2022-10-09T00:21:28.000Z,9.20
2022-10-09T00:23:57.819Z,9.20
2022-10-09T00:26:26.060Z,9.30
2022-10-09T00:28:53.985Z,9.30
2022-10-09T00:31:22.309Z,9.40
2022-10-09T00:33:49.924Z,9.40
2022-10-09T00:36:22.921Z,9.50
2022-10-09T00:38:51.424Z,9.50
2022-10-09T00:41:21.467Z,9.50
2022-10-09T00:43:51.400Z,9.40
2022-10-09T00:46:33.889Z,9.40
2022-10-09T00:49:17.486Z,9.30
2022-10-09T00:51:47.885Z,9.20
2022-10-09T00:54:17.898Z,9.10
2022-10-09T00:56:45.253Z,9.10
2022-10-09T00:59:13.281Z,9.10
2022-10-09T01:01:42.014Z,9.00
2022-10-09T01:04:09.934Z,9.00
2022-10-09T01:07:12.100Z,9.00
2022-10-09T01:09:42.517Z,8.90
2022-10-09T01:12:12.434Z,8.90
2022-10-09T01:14:58.769Z,8.90
2022-10-09T01:17:44.046Z,8.90
2022-10-09T01:20:53.060Z,8.80
2022-10-09T01:23:59.616Z,8.80
2022-10-09T01:26:45.495Z,8.80
2022-10-09T01:29:15.530Z,8.80
2022-10-09T01:31:46.668Z,8.70
2022-10-09T01:34:15.846Z,8.70
2022-10-09T01:36:44.719Z,8.70
2022-10-09T01:39:18.149Z,8.70
2022-10-09T01:41:48.153Z,8.60
2022-10-09T01:44:20.599Z,8.60
2022-10-09T01:46:48.258Z,8.60
2022-10-09T01:49:34.389Z,8.60
2022-10-09T01:52:20.513Z,8.60
2022-10-09T01:55:22.210Z,8.60
2022-10-09T01:57:57.539Z,8.50
2022-10-09T02:00:26.447Z,8.50
2022-10-09T02:02:56.342Z,8.40
2022-10-09T02:05:28.009Z,8.40
2022-10-09T02:07:58.429Z,8.40
2022-10-09T02:10:26.791Z,8.30
2022-10-09T02:12:59.632Z,8.30
2022-10-09T02:15:36.936Z,8.30
2022-10-09T02:18:11.237Z,8.30
2022-10-09T02:20:45.101Z,8.30
2022-10-09T02:23:14.196Z,8.30
2022-10-09T02:25:41.833Z,8.30
2022-10-09T02:28:09.824Z,8.30
2022-10-09T02:30:48.253Z,8.20
2022-10-09T02:33:15.676Z,8.30
2022-10-09T02:35:43.662Z,8.20
2022-10-09T02:38:10.657Z,8.20
2022-10-09T02:40:41.266Z,8.20
2022-10-09T02:43:08.453Z,8.10
2022-10-09T02:45:35.573Z,8.10
2022-10-09T02:48:03.295Z,8.10
2022-10-09T02:50:32.779Z,8.10
2022-10-09T02:52:59.906Z,8.10
2022-10-09T02:55:27.825Z,8.00
2022-10-09T02:57:57.112Z,8.00
2022-10-09T03:03:08.698Z,8.00
2022-10-09T03:05:36.199Z,7.90
2022-10-09T03:08:03.487Z,7.90
2022-10-09T03:10:30.633Z,7.90
2022-10-09T03:13:00.212Z,7.90
2022-10-09T03:15:27.203Z,7.90
2022-10-09T03:17:54.569Z,7.90
2022-10-09T03:20:22.094Z,7.90
2022-10-09T03:22:49.622Z,7.90
2022-10-09T03:25:16.991Z,7.90
2022-10-09T03:27:44.449Z,7.90
2022-10-09T03:30:11.753Z,7.80
2022-10-09T03:32:41.408Z,7.80
2022-10-09T03:35:08.965Z,7.80
2022-10-09T03:37:36.168Z,7.80
2022-10-09T03:40:03.467Z,7.80
2022-10-09T03:42:33.332Z,7.80
2022-10-09T03:45:00.345Z,7.80
2022-10-09T03:47:29.621Z,7.80
2022-10-09T03:49:57.083Z,7.70
2022-10-09T03:52:24.140Z,7.70
2022-10-09T03:54:51.382Z,7.70
2022-10-09T03:57:19.047Z,7.70
2022-10-09T03:59:46.048Z,7.70
2022-10-09T04:02:13.220Z,7.70
2022-10-09T04:04:40.599Z,7.70
2022-10-09T04:07:07.587Z,7.70
2022-10-09T04:09:34.908Z,7.60
2022-10-09T04:12:04.831Z,7.70
2022-10-09T04:14:31.858Z,7.60
2022-10-09T04:16:59.066Z,7.60
2022-10-09T04:19:28.851Z,7.60
2022-10-09T04:21:55.868Z,7.60
2022-10-09T04:24:27.537Z,7.60
2022-10-09T04:26:54.932Z,7.60
2022-10-09T04:29:21.930Z,7.50
2022-10-09T04:31:49.538Z,7.50
2022-10-09T04:34:19.138Z,7.50
2022-10-09T04:36:46.389Z,7.60
2022-10-09T04:39:13.649Z,7.50
2022-10-09T04:41:41.155Z,7.50
2022-10-09T04:44:08.250Z,7.50
2022-10-09T04:46:35.470Z,7.50
2022-10-09T04:49:03.265Z,7.50
2022-10-09T04:51:32.559Z,7.50
2022-10-09T04:54:00.859Z,7.50
2022-10-09T04:56:28.474Z,7.40
2022-10-09T04:58:55.855Z,7.40
2022-10-09T05:01:26.474Z,7.40
2022-10-09T05:03:54.169Z,7.40
2022-10-09T05:06:25.007Z,7.40
2022-10-09T05:08:52.851Z,7.50
2022-10-09T05:11:22.905Z,7.50
2022-10-09T05:13:52.951Z,7.50
2022-10-09T05:16:26.512Z,7.50
2022-10-09T05:18:56.171Z,7.60
2022-10-09T05:21:28.489Z,7.70
2022-10-09T05:23:56.214Z,7.70
2022-10-09T05:26:27.124Z,7.80
2022-10-09T05:28:54.960Z,7.90
2022-10-09T05:31:29.609Z,8.00
2022-10-09T05:33:59.638Z,8.30
2022-10-09T05:36:27.060Z,8.90
2022-10-09T05:38:56.426Z,9.70
2022-10-09T05:41:23.910Z,10.60
2022-10-09T05:43:51.717Z,11.60
2022-10-09T05:46:24.295Z,12.70
2022-10-09T05:48:53.727Z,13.70
2022-10-09T05:51:24.716Z,14.80
2022-10-09T05:53:52.541Z,16.10
2022-10-09T05:56:22.955Z,17.00
2022-10-09T05:58:58.012Z,17.70
2022-10-09T06:01:27.787Z,18.90
2022-10-09T06:03:59.705Z,19.40
2022-10-09T06:06:29.612Z,20.60
2022-10-09T06:08:58.337Z,21.50
2022-10-09T06:11:32.202Z,22.10
2022-10-09T06:14:06.232Z,23.00
2022-10-09T06:16:39.442Z,24.40
2022-10-09T06:19:08.409Z,25.00
2022-10-09T06:21:35.427Z,26.10
2022-10-09T06:24:04.831Z,26.90
2022-10-09T06:26:32.867Z,27.70
2022-10-09T06:29:03.396Z,28.90
2022-10-09T06:31:32.903Z,29.60
2022-10-09T06:34:03.684Z,30.60
2022-10-09T06:36:34.137Z,31.20
2022-10-09T06:39:05.766Z,31.80
2022-10-09T06:41:34.917Z,32.20
2022-10-09T06:44:05.137Z,33.10
2022-10-09T06:46:40.457Z,33.50
2022-10-09T06:49:10.052Z,34.40
2022-10-09T06:51:37.552Z,34.80
2022-10-09T06:54:10.710Z,34.60
2022-10-09T06:56:38.001Z,35.60
2022-10-09T06:59:06.821Z,36.10
2022-10-09T07:01:37.002Z,36.40
2022-10-09T07:04:07.395Z,37.30
2022-10-09T07:06:39.205Z,38.00
2022-10-09T07:09:08.101Z,39.30
2022-10-09T07:11:41.314Z,38.80
2022-10-09T07:14:10.066Z,39.20
2022-10-09T07:16:40.175Z,39.70
2022-10-09T07:19:08.778Z,39.70
2022-10-09T07:21:39.892Z,40.40
2022-10-09T07:24:10.366Z,40.60
2022-10-09T07:26:40.809Z,41.00
2022-10-09T07:29:13.548Z,42.60
2022-10-09T07:31:41.009Z,43.20
2022-10-09T07:34:08.550Z,43.60
2022-10-09T07:36:36.079Z,43.60
2022-10-09T07:39:05.235Z,43.90
2022-10-09T07:41:32.355Z,44.40
2022-10-09T07:43:59.763Z,44.70
2022-10-09T07:46:32.999Z,44.80
2022-10-09T07:49:01.591Z,44.90
2022-10-09T07:51:30.644Z,45.40
2022-10-09T07:54:00.456Z,45.00
2022-10-09T07:56:37.733Z,46.10
2022-10-09T07:59:12.101Z,46.10
2022-10-09T08:01:39.996Z,46.40
2022-10-09T08:04:07.670Z,46.80
2022-10-09T08:06:35.387Z,47.30
2022-10-09T08:09:07.167Z,46.80
2022-10-09T08:11:34.924Z,47.20
2022-10-09T08:14:02.065Z,46.80
2022-10-09T08:16:31.269Z,44.20
2022-10-09T08:19:01.771Z,45.50
2022-10-09T08:21:31.602Z,44.90
2022-10-09T08:23:59.927Z,46.20
2022-10-09T08:26:31.307Z,48.00
2022-10-09T08:29:03.256Z,47.70
2022-10-09T08:31:32.510Z,49.30
2022-10-09T08:34:03.159Z,46.90
2022-10-09T08:36:34.930Z,47.60
2022-10-09T08:39:04.667Z,45.00
2022-10-09T08:41:52.089Z,46.30
2022-10-09T08:44:31.207Z,47.50
2022-10-09T08:47:18.286Z,47.00
2022-10-09T08:50:13.891Z,44.50
2022-10-09T08:52:56.861Z,46.30
2022-10-09T08:55:43.558Z,47.80
2022-10-09T08:58:16.462Z,46.60
2022-10-09T09:00:54.259Z,48.00
2022-10-09T09:03:30.661Z,48.40
2022-10-09T09:06:32.327Z,47.30
2022-10-09T09:09:26.990Z,44.60
2022-10-09T09:12:37.955Z,45.90
2022-10-09T09:15:24.713Z,43.30
2022-10-09T09:17:56.775Z,38.50
2022-10-09T09:20:40.117Z,33.80
2022-10-09T09:23:16.211Z,30.20
2022-10-09T09:25:48.545Z,32.80
2022-10-09T09:28:28.096Z,37.10
2022-10-09T09:31:06.178Z,40.80
2022-10-09T09:33:57.645Z,43.10
2022-10-09T09:36:24.767Z,44.00
2022-10-09T09:41:41.792Z,45.80
2022-10-09T09:44:14.151Z,46.10
2022-10-09T09:46:42.234Z,46.00
2022-10-09T09:49:26.167Z,42.10
2022-10-09T09:51:58.333Z,37.60
2022-10-09T09:54:30.649Z,33.50
2022-10-09T09:57:18.281Z,29.90
2022-10-09T09:59:50.240Z,27.20
2022-10-09T10:02:20.141Z,25.10
2022-10-09T10:05:01.284Z,23.80
2022-10-09T10:07:38.818Z,25.70
2022-10-09T10:10:07.739Z,29.30
2022-10-09T10:12:41.006Z,32.30
2022-10-09T10:15:27.915Z,33.90
2022-10-09T10:17:57.791Z,35.50
2022-10-09T10:20:28.863Z,36.10
2022-10-09T10:22:57.670Z,36.90
2022-10-09T10:25:33.625Z,37.60
2022-10-09T10:28:07.264Z,36.80
2022-10-09T10:30:36.735Z,36.60
2022-10-09T10:33:14.999Z,36.80
2022-10-09T10:35:44.212Z,37.00
2022-10-09T10:38:32.451Z,37.60
2022-10-09T10:41:15.016Z,37.80
2022-10-09T10:43:56.102Z,37.40
2022-10-09T10:46:37.574Z,36.90
2022-10-09T10:49:07.540Z,35.70
2022-10-09T10:51:58.200Z,32.50
2022-10-09T10:54:25.712Z,29.00
2022-10-09T10:57:09.005Z,26.60
2022-10-09T10:59:51.398Z,24.50
2022-10-09T11:02:47.057Z,23.10
2022-10-09T11:05:23.576Z,21.90
2022-10-09T11:08:00.394Z,21.10
2022-10-09T11:10:48.653Z,21.30
2022-10-09T11:13:33.826Z,23.90
2022-10-09T11:16:09.774Z,26.40
2022-10-09T11:18:59.309Z,28.00
2022-10-09T11:21:42.078Z,28.50
2022-10-09T11:24:28.731Z,27.70
2022-10-09T11:27:11.231Z,26.60
2022-10-09T11:29:52.928Z,25.70
2022-10-09T11:32:26.902Z,25.00
2022-10-09T11:35:07.197Z,24.30
2022-10-09T11:37:37.655Z,23.90
2022-10-09T11:40:16.904Z,23.30
2022-10-09T11:42:49.341Z,22.90
2022-10-09T11:45:34.106Z,22.10
2022-10-09T11:48:10.158Z,21.30
2022-10-09T11:50:48.550Z,20.70
2022-10-09T11:53:18.183Z,20.20
2022-10-09T11:55:45.671Z,19.80
2022-10-09T11:58:19.046Z,19.30
2022-10-09T12:00:49.104Z,18.90
2022-10-09T12:03:35.836Z,18.60
2022-10-09T12:06:17.010Z,18.20
2022-10-09T12:09:07.294Z,18.00
2022-10-09T12:11:37.185Z,17.80
2022-10-09T12:14:12.046Z,17.80
2022-10-09T12:16:46.097Z,17.70
2022-10-09T12:19:42.769Z,17.70
2022-10-09T12:22:18.255Z,17.60
2022-10-09T12:24:50.697Z,17.40
2022-10-09T12:27:28.650Z,17.10
2022-10-09T12:30:02.963Z,17.00
2022-10-09T12:32:35.425Z,17.00
2022-10-09T12:35:25.397Z,17.00
2022-10-09T12:37:53.077Z,16.90
2022-10-09T12:40:26.690Z,16.90
2022-10-09T12:42:56.114Z,16.70
2022-10-09T12:45:27.818Z,16.60
2022-10-09T12:48:00.380Z,16.60
2022-10-09T12:50:33.279Z,16.60
2022-10-09T12:53:05.181Z,16.30
2022-10-09T12:55:42.191Z,16.00
2022-10-09T12:58:22.852Z,15.70
2022-10-09T13:00:59.020Z,15.60
2022-10-09T13:04:02.968Z,15.50
2022-10-09T13:06:47.330Z,15.40
2022-10-09T13:09:27.781Z,15.40
2022-10-09T13:12:01.801Z,15.40
2022-10-09T13:14:41.292Z,15.30
2022-10-09T13:17:24.313Z,15.30
2022-10-09T13:19:54.026Z,15.30
2022-10-09T13:22:26.126Z,15.20
2022-10-09T13:24:56.804Z,15.00
2022-10-09T13:27:28.406Z,15.00
2022-10-09T13:29:56.687Z,14.90
2022-10-09T13:32:24.626Z,14.80
2022-10-09T13:34:52.739Z,14.80
2022-10-09T13:37:21.414Z,14.80
2022-10-09T13:39:51.224Z,14.80
2022-10-09T13:42:22.267Z,14.90
2022-10-09T13:44:50.106Z,14.90
2022-10-09T13:47:21.958Z,14.90
2022-10-09T13:49:51.824Z,14.90
2022-10-09T13:52:19.006Z,14.90
2022-10-09T13:54:46.097Z,14.80
2022-10-09T13:57:13.734Z,14.70
2022-10-09T13:59:41.007Z,14.70
2022-10-09T14:02:09.798Z,14.60
2022-10-09T14:04:40.037Z,14.50
2022-10-09T14:07:07.163Z,14.50
2022-10-09T14:09:34.747Z,14.30
2022-10-09T14:12:02.921Z,14.30
2022-10-09T14:14:30.231Z,14.30
2022-10-09T14:16:57.315Z,14.20
2022-10-09T14:19:25.322Z,14.10
2022-10-09T14:21:55.393Z,14.10
2022-10-09T14:24:22.992Z,14.00
2022-10-09T14:26:51.876Z,14.00
2022-10-09T14:29:19.309Z,13.90
2022-10-09T14:31:46.436Z,13.90
2022-10-09T14:34:14.252Z,13.90
2022-10-09T14:36:41.593Z,13.90
2022-10-09T14:39:09.547Z,13.80
2022-10-09T14:41:38.079Z,13.80
2022-10-09T14:44:05.875Z,13.80
2022-10-09T14:46:33.438Z,13.70
2022-10-09T14:49:01.145Z,13.70
2022-10-09T14:51:29.474Z,13.70
2022-10-09T14:54:01.788Z,13.60
2022-10-09T14:56:32.328Z,13.50
2022-10-09T14:59:02.082Z,13.40
2022-10-09T15:01:29.778Z,13.30
2022-10-09T15:03:57.279Z,13.30
2022-10-09T15:06:27.634Z,13.30
2022-10-09T15:09:00.405Z,13.20
2022-10-09T15:11:30.960Z,13.30
2022-10-09T15:13:58.272Z,13.20
2022-10-09T15:16:26.015Z,13.20
2022-10-09T15:18:57.089Z,13.20
2022-10-09T15:21:29.988Z,13.10
2022-10-09T15:23:59.521Z,13.10
2022-10-09T15:26:28.602Z,13.10
2022-10-09T15:28:55.658Z,13.10
2022-10-09T15:31:32.413Z,13.00
2022-10-09T15:34:00.027Z,12.90
2022-10-09T15:36:34.412Z,12.90
2022-10-09T15:39:02.357Z,12.80
2022-10-09T15:41:31.956Z,12.80
2022-10-09T15:44:02.757Z,12.70
2022-10-09T15:46:32.990Z,12.70
2022-10-09T15:49:02.806Z,12.70
2022-10-09T15:51:29.984Z,12.60
2022-10-09T15:53:59.412Z,12.50
2022-10-09T15:56:27.659Z,12.50
2022-10-09T15:58:58.042Z,12.40
2022-10-09T16:01:25.691Z,12.40
2022-10-09T16:03:56.938Z,12.30
2022-10-09T16:06:24.298Z,12.30
2022-10-09T16:08:54.754Z,12.20
2022-10-09T16:11:25.176Z,12.20
2022-10-09T16:13:54.768Z,12.10
2022-10-09T16:16:25.027Z,12.00
2022-10-09T16:18:52.832Z,12.00
2022-10-09T16:21:30.486Z,12.00
2022-10-09T16:23:59.699Z,11.90
2022-10-09T16:26:30.693Z,11.90
2022-10-09T16:29:00.200Z,11.90
2022-10-09T16:31:35.107Z,11.90
2022-10-09T16:34:07.512Z,11.80
2022-10-09T16:36:35.611Z,11.80
2022-10-09T16:39:02.813Z,11.80
2022-10-09T16:41:32.507Z,11.70
2022-10-09T16:43:59.961Z,11.70
2022-10-09T16:49:07.039Z,11.60
2022-10-09T16:51:35.972Z,11.50
2022-10-09T16:54:06.277Z,11.40
2022-10-09T16:56:37.177Z,11.30
2022-10-09T16:59:06.898Z,11.20
2022-10-09T17:01:37.256Z,11.20
2022-10-09T17:04:04.949Z,11.20
2022-10-09T17:06:32.492Z,11.10
2022-10-09T17:08:59.693Z,11.10
2022-10-09T17:11:29.221Z,11.00
2022-10-09T17:13:59.085Z,11.00
2022-10-09T17:16:30.128Z,10.90
2022-10-09T17:18:57.761Z,10.80
2022-10-09T17:21:29.350Z,10.70
2022-10-09T17:24:02.095Z,10.70
2022-10-09T17:26:30.078Z,10.60
2022-10-09T17:29:01.058Z,10.50
2022-10-09T17:31:31.844Z,10.50
2022-10-09T17:34:01.615Z,10.40
2022-10-09T17:36:32.709Z,10.30
2022-10-09T17:39:00.098Z,10.30
2022-10-09T17:41:30.133Z,10.30
2022-10-09T17:43:58.471Z,10.20
2022-10-09T17:46:27.570Z,10.10
2022-10-09T17:48:55.457Z,10.00
2022-10-09T17:51:25.337Z,9.90
2022-10-09T17:53:59.565Z,9.70
2022-10-09T17:56:28.484Z,9.60
2022-10-09T17:59:00.086Z,9.60
2022-10-09T18:01:27.886Z,9.50
2022-10-09T18:03:55.297Z,9.50
2022-10-09T18:06:23.232Z,9.40
2022-10-09T18:08:52.272Z,9.40
2022-10-09T18:11:20.043Z,9.40
2022-10-09T18:13:48.272Z,9.30
2022-10-09T18:16:18.666Z,9.30
2022-10-09T18:18:49.237Z,9.20
2022-10-09T18:21:17.445Z,9.10
2022-10-09T18:23:46.812Z,9.00
2022-10-09T18:26:18.398Z,9.00
2022-10-09T18:28:48.462Z,8.90
2022-10-09T18:31:19.069Z,8.90
2022-10-09T18:33:49.551Z,8.80
2022-10-09T18:36:25.347Z,8.80
2022-10-09T18:38:55.426Z,8.80
2022-10-09T18:41:23.924Z,8.80
2022-10-09T18:43:51.958Z,8.80
2022-10-09T18:46:25.138Z,8.80
2022-10-09T18:48:54.408Z,8.80
2022-10-09T18:51:24.255Z,8.70
2022-10-09T18:53:59.956Z,8.60
2022-10-09T18:56:30.867Z,8.60
2022-10-09T18:59:00.031Z,8.50
2022-10-09T19:01:30.135Z,8.40
2022-10-09T19:03:57.423Z,8.40
2022-10-09T19:06:24.763Z,8.40
2022-10-09T19:08:52.434Z,8.30
2022-10-09T19:11:19.988Z,8.30
2022-10-09T19:13:47.285Z,8.20
2022-10-09T19:16:15.378Z,8.20
2022-10-09T19:18:43.243Z,8.30
2022-10-09T19:21:13.889Z,8.30
2022-10-09T19:23:41.925Z,8.30
2022-10-09T19:26:12.145Z,8.30
2022-10-09T19:28:39.939Z,8.30
2022-10-09T19:31:09.378Z,8.20
2022-10-09T19:33:38.104Z,8.10
2022-10-09T19:36:06.641Z,8.10
2022-10-09T19:38:33.941Z,8.00
2022-10-09T19:41:09.605Z,8.00
2022-10-09T19:43:37.537Z,7.90
2022-10-09T19:46:11.259Z,7.90
2022-10-09T19:48:41.313Z,7.90
2022-10-09T19:51:13.504Z,7.80
2022-10-09T19:53:40.976Z,7.80
2022-10-09T19:56:23.259Z,7.80
2022-10-09T19:58:53.285Z,7.80
2022-10-09T20:01:25.875Z,7.80
2022-10-09T20:04:00.475Z,7.70
2022-10-09T20:06:32.438Z,7.70
2022-10-09T20:09:00.390Z,7.70
2022-10-09T20:11:28.321Z,7.70
2022-10-09T20:13:58.853Z,7.70
2022-10-09T20:16:27.329Z,7.70
2022-10-09T20:18:56.067Z,7.70
2022-10-09T20:21:26.363Z,7.80
2022-10-09T20:23:57.087Z,7.80
2022-10-09T20:26:25.366Z,7.80
2022-10-09T20:28:55.278Z,7.80
2022-10-09T20:31:27.048Z,7.80
2022-10-09T20:33:58.097Z,7.80
2022-10-09T20:36:25.821Z,7.80
2022-10-09T20:38:58.818Z,7.80
2022-10-09T20:41:27.766Z,7.80
2022-10-09T20:43:57.134Z,7.80
2022-10-09T20:46:25.965Z,7.80
2022-10-09T20:48:53.501Z,7.80
2022-10-09T20:51:21.427Z,7.80
2022-10-09T20:53:58.245Z,7.80
2022-10-09T20:56:28.349Z,7.70
2022-10-09T20:58:59.058Z,7.60
2022-10-09T21:01:29.300Z,7.60
2022-10-09T21:03:59.385Z,7.60
2022-10-09T21:06:29.442Z,7.60
2022-10-09T21:08:58.136Z,7.50
2022-10-09T21:11:25.763Z,7.50
2022-10-09T21:13:55.223Z,7.50
2022-10-09T21:16:26.086Z,7.60
2022-10-09T21:18:58.144Z,7.60
2022-10-09T21:21:27.047Z,7.60
2022-10-09T21:23:59.305Z,7.60
2022-10-09T21:26:27.751Z,7.60
2022-10-09T21:28:59.282Z,7.60
2022-10-09T21:31:29.231Z,7.60
2022-10-09T21:34:01.244Z,7.60
2022-10-09T21:36:51.208Z,7.60
2022-10-09T21:39:31.443Z,7.60
2022-10-09T21:41:58.872Z,7.60
2022-10-09T21:44:26.291Z,7.60
2022-10-09T21:46:53.512Z,7.60
2022-10-09T21:49:27.038Z,7.60
2022-10-09T21:51:54.787Z,7.50
2022-10-09T21:54:22.431Z,7.50
2022-10-09T21:56:49.946Z,7.50
2022-10-09T21:59:19.326Z,7.50
2022-10-09T22:01:46.676Z,7.50
2022-10-09T22:04:13.885Z,7.50
2022-10-09T22:06:41.086Z,7.60
2022-10-09T22:09:08.751Z,7.60
2022-10-09T22:11:38.359Z,7.60
2022-10-09T22:14:05.843Z,7.50
2022-10-09T22:16:33.121Z,7.60
2022-10-09T22:19:00.936Z,7.60
2022-10-09T22:21:28.903Z,7.60
2022-10-09T22:23:56.219Z,7.60
2022-10-09T22:26:26.007Z,7.60
2022-10-09T22:28:53.224Z,7.60
2022-10-09T22:31:22.460Z,7.50
2022-10-09T22:33:57.096Z,7.40
2022-10-09T22:36:27.359Z,7.40
2022-10-09T22:39:00.249Z,7.40
2022-10-09T22:41:28.656Z,7.30
2022-10-09T22:43:59.020Z,7.30
2022-10-09T22:46:30.021Z,7.30
2022-10-09T22:48:57.536Z,7.30
2022-10-09T22:51:26.383Z,7.30
2022-10-09T22:53:55.436Z,7.30
2022-10-09T22:56:27.114Z,7.30
2022-10-09T22:58:56.662Z,7.30
2022-10-09T23:01:31.407Z,7.30
2022-10-09T23:04:05.019Z,7.30
2022-10-09T23:06:32.478Z,7.30
2022-10-09T23:09:00.624Z,7.20
2022-10-09T23:11:29.870Z,7.10
2022-10-09T23:14:00.349Z,7.10
2022-10-09T23:16:29.254Z,7.10
2022-10-09T23:18:58.222Z,7.00
2022-10-09T23:21:26.891Z,7.10
2022-10-09T23:23:54.424Z,7.10
2022-10-09T23:26:24.648Z,7.00
2022-10-09T23:28:54.012Z,7.00
2022-10-09T23:31:21.679Z,6.90
2022-10-09T23:33:49.642Z,6.90
2022-10-09T23:36:21.236Z,6.90
2022-10-09T23:38:51.416Z,7.00
2022-10-09T23:41:21.707Z,7.00
2022-10-09T23:43:52.586Z,7.00
2022-10-09T23:46:25.288Z,6.90
2022-10-09T23:48:53.203Z,6.90
2022-10-09T23:51:22.122Z,6.90
2022-10-09T23:53:49.467Z,6.80
2022-10-09T23:56:21.974Z,6.80
2022-10-09T23:58:49.927Z,6.80
